sensor_id;sensor_type;location;lat;lon;timestamp;P1;durP1;ratioP1;P2;durP2;ratioP2
56171;SDS011;42052;41.634;-0.946;2022-07-23T00:02:05;6.18;;;1.88;;
56171;SDS011;42052;41.634;-0.946;2022-07-23T00:04:32;4.85;;;1.60;;
56171;SDS011;42052;41.634;-0.946;2022-07-23T00:06:58;6.60;;;1.60;;
56171;SDS011;42052;41.634;-0.946;2022-07-23T00:09:24;5.82;;;1.38;;
56171;SDS011;42052;41.634;-0.946;2022-07-23T00:11:50;2.55;;;1.40;;
56171;SDS011;42052;41.634;-0.946;2022-07-23T00:14:16;4.70;;;1.55;;
56171;SDS011;42052;41.634;-0.946;2022-07-23T00:16:42;5.07;;;1.70;;
56171;SDS011;42052;41.634;-0.946;2022-07-23T00:19:07;4.07;;;1.70;;
56171;SDS011;42052;41.634;-0.946;2022-07-23T00:21:33;4.35;;;1.60;;
56171;SDS011;42052;41.634;-0.946;2022-07-23T00:23:59;4.57;;;1.60;;
56171;SDS011;42052;41.634;-0.946;2022-07-23T00:26:25;6.47;;;1.40;;
56171;SDS011;42052;41.634;-0.946;2022-07-23T00:28:51;5.32;;;1.35;;
56171;SDS011;42052;41.634;-0.946;2022-07-23T00:31:17;3.47;;;1.40;;
56171;SDS011;42052;41.634;-0.946;2022-07-23T00:33:43;2.78;;;1.40;;
56171;SDS011;42052;41.634;-0.946;2022-07-23T00:36:08;5.03;;;1.50;;
56171;SDS011;42052;41.634;-0.946;2022-07-23T00:38:34;3.15;;;1.40;;
56171;SDS011;42052;41.634;-0.946;2022-07-23T00:41:00;1.90;;;1.30;;
56171;SDS011;42052;41.634;-0.946;2022-07-23T00:43:26;3.00;;;1.30;;
56171;SDS011;42052;41.634;-0.946;2022-07-23T00:45:52;3.13;;;1.58;;
56171;SDS011;42052;41.634;-0.946;2022-07-23T00:48:18;2.83;;;1.40;;
56171;SDS011;42052;41.634;-0.946;2022-07-23T00:50:43;3.05;;;1.30;;
56171;SDS011;42052;41.634;-0.946;2022-07-23T00:53:09;2.40;;;1.35;;
56171;SDS011;42052;41.634;-0.946;2022-07-23T00:55:35;2.25;;;1.40;;
56171;SDS011;42052;41.634;-0.946;2022-07-23T00:58:02;2.78;;;1.30;;
56171;SDS011;42052;41.634;-0.946;2022-07-23T01:00:29;4.47;;;1.40;;
56171;SDS011;42052;41.634;-0.946;2022-07-23T01:02:55;2.30;;;1.30;;
56171;SDS011;42052;41.634;-0.946;2022-07-23T01:05:21;3.85;;;1.30;;
56171;SDS011;42052;41.634;-0.946;2022-07-23T01:07:50;2.38;;;1.20;;
56171;SDS011;42052;41.634;-0.946;2022-07-23T01:10:17;4.25;;;1.27;;
56171;SDS011;42052;41.634;-0.946;2022-07-23T01:13:05;2.28;;;1.50;;
56171;SDS011;42052;41.634;-0.946;2022-07-23T01:15:35;3.67;;;1.40;;
56171;SDS011;42052;41.634;-0.946;2022-07-23T01:18:03;2.05;;;1.27;;
56171;SDS011;42052;41.634;-0.946;2022-07-23T01:20:30;2.10;;;1.30;;
56171;SDS011;42052;41.634;-0.946;2022-07-23T01:22:56;1.92;;;1.15;;
56171;SDS011;42052;41.634;-0.946;2022-07-23T01:25:22;3.00;;;1.20;;
56171;SDS011;42052;41.634;-0.946;2022-07-23T01:27:48;2.45;;;1.20;;
56171;SDS011;42052;41.634;-0.946;2022-07-23T01:30:14;1.92;;;1.30;;
56171;SDS011;42052;41.634;-0.946;2022-07-23T01:32:40;2.03;;;1.25;;
56171;SDS011;42052;41.634;-0.946;2022-07-23T01:35:06;2.05;;;1.27;;
56171;SDS011;42052;41.634;-0.946;2022-07-23T01:37:33;4.85;;;1.42;;
56171;SDS011;42052;41.634;-0.946;2022-07-23T01:39:58;1.58;;;1.23;;
56171;SDS011;42052;41.634;-0.946;2022-07-23T01:42:24;1.88;;;1.02;;
56171;SDS011;42052;41.634;-0.946;2022-07-23T01:44:50;2.50;;;1.42;;
56171;SDS011;42052;41.634;-0.946;2022-07-23T01:47:16;3.83;;;1.42;;
56171;SDS011;42052;41.634;-0.946;2022-07-23T01:49:42;2.05;;;1.17;;
56171;SDS011;42052;41.634;-0.946;2022-07-23T01:52:08;3.80;;;1.40;;
56171;SDS011;42052;41.634;-0.946;2022-07-23T01:54:36;2.42;;;1.17;;
56171;SDS011;42052;41.634;-0.946;2022-07-23T01:57:03;1.90;;;1.20;;
56171;SDS011;42052;41.634;-0.946;2022-07-23T01:59:29;3.28;;;1.27;;
56171;SDS011;42052;41.634;-0.946;2022-07-23T02:01:55;1.90;;;0.98;;
56171;SDS011;42052;41.634;-0.946;2022-07-23T02:04:22;3.38;;;1.25;;
56171;SDS011;42052;41.634;-0.946;2022-07-23T02:06:49;3.88;;;1.30;;
56171;SDS011;42052;41.634;-0.946;2022-07-23T02:09:16;2.13;;;1.20;;
56171;SDS011;42052;41.634;-0.946;2022-07-23T02:11:42;3.40;;;1.00;;
56171;SDS011;42052;41.634;-0.946;2022-07-23T02:14:08;1.80;;;1.33;;
56171;SDS011;42052;41.634;-0.946;2022-07-23T02:16:34;2.47;;;1.20;;
56171;SDS011;42052;41.634;-0.946;2022-07-23T02:19:00;2.45;;;1.38;;
56171;SDS011;42052;41.634;-0.946;2022-07-23T02:21:26;1.92;;;1.33;;
56171;SDS011;42052;41.634;-0.946;2022-07-23T02:23:52;1.80;;;1.25;;
56171;SDS011;42052;41.634;-0.946;2022-07-23T02:26:18;1.30;;;1.00;;
56171;SDS011;42052;41.634;-0.946;2022-07-23T02:28:44;2.42;;;1.40;;
56171;SDS011;42052;41.634;-0.946;2022-07-23T02:31:09;1.88;;;1.10;;
56171;SDS011;42052;41.634;-0.946;2022-07-23T02:33:35;3.42;;;1.30;;
56171;SDS011;42052;41.634;-0.946;2022-07-23T02:36:01;3.55;;;1.30;;
56171;SDS011;42052;41.634;-0.946;2022-07-23T02:38:27;2.15;;;1.30;;
56171;SDS011;42052;41.634;-0.946;2022-07-23T02:40:53;1.30;;;1.13;;
56171;SDS011;42052;41.634;-0.946;2022-07-23T02:43:19;5.30;;;1.30;;
56171;SDS011;42052;41.634;-0.946;2022-07-23T02:45:44;1.40;;;1.10;;
56171;SDS011;42052;41.634;-0.946;2022-07-23T02:48:10;2.22;;;1.20;;
56171;SDS011;42052;41.634;-0.946;2022-07-23T02:50:37;1.77;;;1.10;;
56171;SDS011;42052;41.634;-0.946;2022-07-23T02:53:04;1.73;;;1.20;;
56171;SDS011;42052;41.634;-0.946;2022-07-23T02:55:29;1.90;;;1.08;;
56171;SDS011;42052;41.634;-0.946;2022-07-23T02:57:56;2.35;;;1.40;;
56171;SDS011;42052;41.634;-0.946;2022-07-23T03:00:22;1.60;;;1.08;;
56171;SDS011;42052;41.634;-0.946;2022-07-23T03:02:48;1.95;;;1.23;;
56171;SDS011;42052;41.634;-0.946;2022-07-23T03:05:14;3.20;;;1.20;;
56171;SDS011;42052;41.634;-0.946;2022-07-23T03:07:40;2.58;;;1.30;;
56171;SDS011;42052;41.634;-0.946;2022-07-23T03:10:06;2.47;;;1.30;;
56171;SDS011;42052;41.634;-0.946;2022-07-23T03:12:32;3.65;;;1.20;;
56171;SDS011;42052;41.634;-0.946;2022-07-23T03:14:58;2.28;;;1.27;;
56171;SDS011;42052;41.634;-0.946;2022-07-23T03:17:24;4.07;;;1.40;;
56171;SDS011;42052;41.634;-0.946;2022-07-23T03:19:50;1.88;;;1.10;;
56171;SDS011;42052;41.634;-0.946;2022-07-23T03:22:15;2.67;;;1.17;;
56171;SDS011;42052;41.634;-0.946;2022-07-23T03:24:41;2.75;;;1.38;;
56171;SDS011;42052;41.634;-0.946;2022-07-23T03:27:20;2.58;;;1.20;;
56171;SDS011;42052;41.634;-0.946;2022-07-23T03:29:52;1.48;;;1.20;;
56171;SDS011;42052;41.634;-0.946;2022-07-23T03:32:20;2.53;;;1.27;;
56171;SDS011;42052;41.634;-0.946;2022-07-23T03:34:46;2.45;;;1.27;;
56171;SDS011;42052;41.634;-0.946;2022-07-23T03:37:13;2.35;;;1.20;;
56171;SDS011;42052;41.634;-0.946;2022-07-23T03:39:39;4.97;;;1.25;;
56171;SDS011;42052;41.634;-0.946;2022-07-23T03:42:05;3.45;;;1.17;;
56171;SDS011;42052;41.634;-0.946;2022-07-23T03:44:31;3.28;;;1.45;;
56171;SDS011;42052;41.634;-0.946;2022-07-23T03:46:57;5.00;;;1.33;;
56171;SDS011;42052;41.634;-0.946;2022-07-23T03:49:23;2.25;;;1.20;;
56171;SDS011;42052;41.634;-0.946;2022-07-23T03:51:49;3.30;;;1.20;;
56171;SDS011;42052;41.634;-0.946;2022-07-23T03:54:15;1.92;;;1.00;;
56171;SDS011;42052;41.634;-0.946;2022-07-23T03:56:41;2.97;;;1.10;;
56171;SDS011;42052;41.634;-0.946;2022-07-23T03:59:08;2.22;;;1.30;;
56171;SDS011;42052;41.634;-0.946;2022-07-23T04:01:34;2.78;;;1.23;;
56171;SDS011;42052;41.634;-0.946;2022-07-23T04:04:00;2.42;;;1.10;;
56171;SDS011;42052;41.634;-0.946;2022-07-23T04:06:26;2.40;;;1.20;;
56171;SDS011;42052;41.634;-0.946;2022-07-23T04:08:52;2.17;;;1.20;;
56171;SDS011;42052;41.634;-0.946;2022-07-23T04:11:18;4.60;;;1.50;;
56171;SDS011;42052;41.634;-0.946;2022-07-23T04:13:44;2.10;;;1.13;;
56171;SDS011;42052;41.634;-0.946;2022-07-23T04:16:09;2.15;;;1.13;;
56171;SDS011;42052;41.634;-0.946;2022-07-23T04:18:35;2.20;;;1.20;;
56171;SDS011;42052;41.634;-0.946;2022-07-23T04:21:01;3.88;;;1.20;;
56171;SDS011;42052;41.634;-0.946;2022-07-23T04:23:27;1.83;;;1.08;;
56171;SDS011;42052;41.634;-0.946;2022-07-23T04:25:53;2.50;;;1.00;;
56171;SDS011;42052;41.634;-0.946;2022-07-23T04:28:19;1.45;;;1.13;;
56171;SDS011;42052;41.634;-0.946;2022-07-23T04:30:45;3.88;;;1.38;;
56171;SDS011;42052;41.634;-0.946;2022-07-23T04:33:11;2.63;;;1.10;;
56171;SDS011;42052;41.634;-0.946;2022-07-23T04:35:36;1.25;;;0.90;;
56171;SDS011;42052;41.634;-0.946;2022-07-23T04:38:03;2.22;;;1.10;;
56171;SDS011;42052;41.634;-0.946;2022-07-23T04:40:29;2.38;;;1.10;;
56171;SDS011;42052;41.634;-0.946;2022-07-23T04:42:55;2.80;;;1.20;;
56171;SDS011;42052;41.634;-0.946;2022-07-23T04:45:21;5.13;;;1.20;;
56171;SDS011;42052;41.634;-0.946;2022-07-23T04:47:48;2.00;;;1.05;;
56171;SDS011;42052;41.634;-0.946;2022-07-23T04:50:14;2.70;;;1.10;;
56171;SDS011;42052;41.634;-0.946;2022-07-23T04:52:44;1.42;;;1.20;;
56171;SDS011;42052;41.634;-0.946;2022-07-23T04:55:10;1.80;;;1.13;;
56171;SDS011;42052;41.634;-0.946;2022-07-23T04:57:35;2.38;;;1.10;;
56171;SDS011;42052;41.634;-0.946;2022-07-23T05:00:02;3.05;;;1.35;;
56171;SDS011;42052;41.634;-0.946;2022-07-23T05:02:29;2.45;;;1.10;;
56171;SDS011;42052;41.634;-0.946;2022-07-23T05:04:55;2.75;;;1.20;;
56171;SDS011;42052;41.634;-0.946;2022-07-23T05:07:21;1.75;;;0.98;;
56171;SDS011;42052;41.634;-0.946;2022-07-23T05:09:47;2.03;;;1.08;;
56171;SDS011;42052;41.634;-0.946;2022-07-23T05:12:13;2.33;;;0.90;;
56171;SDS011;42052;41.634;-0.946;2022-07-23T05:14:39;1.48;;;0.95;;
56171;SDS011;42052;41.634;-0.946;2022-07-23T05:17:04;1.77;;;1.00;;
56171;SDS011;42052;41.634;-0.946;2022-07-23T05:19:31;1.17;;;0.90;;
56171;SDS011;42052;41.634;-0.946;2022-07-23T05:21:57;1.40;;;1.00;;
56171;SDS011;42052;41.634;-0.946;2022-07-23T05:24:23;1.38;;;1.10;;
56171;SDS011;42052;41.634;-0.946;2022-07-23T05:26:49;1.52;;;1.05;;
56171;SDS011;42052;41.634;-0.946;2022-07-23T05:29:15;2.17;;;1.00;;
56171;SDS011;42052;41.634;-0.946;2022-07-23T05:31:41;3.08;;;1.20;;
56171;SDS011;42052;41.634;-0.946;2022-07-23T05:34:07;2.08;;;1.00;;
56171;SDS011;42052;41.634;-0.946;2022-07-23T05:36:33;2.15;;;1.02;;
56171;SDS011;42052;41.634;-0.946;2022-07-23T05:38:58;1.45;;;1.10;;
56171;SDS011;42052;41.634;-0.946;2022-07-23T05:41:24;3.30;;;1.10;;
56171;SDS011;42052;41.634;-0.946;2022-07-23T05:43:50;1.73;;;1.00;;
56171;SDS011;42052;41.634;-0.946;2022-07-23T05:46:16;1.30;;;0.80;;
56171;SDS011;42052;41.634;-0.946;2022-07-23T05:48:42;1.60;;;0.95;;
56171;SDS011;42052;41.634;-0.946;2022-07-23T05:51:08;1.13;;;0.93;;
56171;SDS011;42052;41.634;-0.946;2022-07-23T05:53:34;1.70;;;1.08;;
56171;SDS011;42052;41.634;-0.946;2022-07-23T05:56:00;2.03;;;1.20;;
56171;SDS011;42052;41.634;-0.946;2022-07-23T05:58:26;1.73;;;1.10;;
56171;SDS011;42052;41.634;-0.946;2022-07-23T06:00:53;1.90;;;1.05;;
56171;SDS011;42052;41.634;-0.946;2022-07-23T06:03:18;1.63;;;1.02;;
56171;SDS011;42052;41.634;-0.946;2022-07-23T06:05:45;1.92;;;1.00;;
56171;SDS011;42052;41.634;-0.946;2022-07-23T06:08:11;2.65;;;0.90;;
56171;SDS011;42052;41.634;-0.946;2022-07-23T06:10:37;2.80;;;0.93;;
56171;SDS011;42052;41.634;-0.946;2022-07-23T06:13:03;1.60;;;0.80;;
56171;SDS011;42052;41.634;-0.946;2022-07-23T06:15:29;2.15;;;1.00;;
56171;SDS011;42052;41.634;-0.946;2022-07-23T06:17:55;2.35;;;1.00;;
56171;SDS011;42052;41.634;-0.946;2022-07-23T06:20:21;2.65;;;1.27;;
56171;SDS011;42052;41.634;-0.946;2022-07-23T06:22:47;1.95;;;1.20;;
56171;SDS011;42052;41.634;-0.946;2022-07-23T06:25:13;3.25;;;1.10;;
56171;SDS011;42052;41.634;-0.946;2022-07-23T06:27:38;2.40;;;0.90;;
56171;SDS011;42052;41.634;-0.946;2022-07-23T06:30:04;1.90;;;0.95;;
56171;SDS011;42052;41.634;-0.946;2022-07-23T06:32:33;1.55;;;1.10;;
56171;SDS011;42052;41.634;-0.946;2022-07-23T06:34:59;2.63;;;1.10;;
56171;SDS011;42052;41.634;-0.946;2022-07-23T06:37:24;2.85;;;0.93;;
56171;SDS011;42052;41.634;-0.946;2022-07-23T06:39:50;4.03;;;1.10;;
56171;SDS011;42052;41.634;-0.946;2022-07-23T06:42:16;1.67;;;1.00;;
56171;SDS011;42052;41.634;-0.946;2022-07-23T06:44:42;3.05;;;1.25;;
56171;SDS011;42052;41.634;-0.946;2022-07-23T06:47:08;1.90;;;1.00;;
56171;SDS011;42052;41.634;-0.946;2022-07-23T06:49:34;2.70;;;1.15;;
56171;SDS011;42052;41.634;-0.946;2022-07-23T06:52:00;2.95;;;1.08;;
56171;SDS011;42052;41.634;-0.946;2022-07-23T06:54:25;2.53;;;1.23;;
56171;SDS011;42052;41.634;-0.946;2022-07-23T06:56:51;1.65;;;0.98;;
56171;SDS011;42052;41.634;-0.946;2022-07-23T06:59:17;2.83;;;0.93;;
56171;SDS011;42052;41.634;-0.946;2022-07-23T07:01:43;3.30;;;1.15;;
56171;SDS011;42052;41.634;-0.946;2022-07-23T07:04:08;3.60;;;1.10;;
56171;SDS011;42052;41.634;-0.946;2022-07-23T07:06:34;1.85;;;0.93;;
56171;SDS011;42052;41.634;-0.946;2022-07-23T07:09:00;1.88;;;0.90;;
56171;SDS011;42052;41.634;-0.946;2022-07-23T07:11:26;1.38;;;0.95;;
56171;SDS011;42052;41.634;-0.946;2022-07-23T07:13:52;2.70;;;1.10;;
56171;SDS011;42052;41.634;-0.946;2022-07-23T07:16:18;1.70;;;0.90;;
56171;SDS011;42052;41.634;-0.946;2022-07-23T07:18:44;1.38;;;1.00;;
56171;SDS011;42052;41.634;-0.946;2022-07-23T07:21:09;2.40;;;1.13;;
56171;SDS011;42052;41.634;-0.946;2022-07-23T07:23:35;1.98;;;1.00;;
56171;SDS011;42052;41.634;-0.946;2022-07-23T07:26:01;2.10;;;0.85;;
56171;SDS011;42052;41.634;-0.946;2022-07-23T07:28:27;2.10;;;0.93;;
56171;SDS011;42052;41.634;-0.946;2022-07-23T07:30:53;3.60;;;1.00;;
56171;SDS011;42052;41.634;-0.946;2022-07-23T07:33:19;3.42;;;1.10;;
56171;SDS011;42052;41.634;-0.946;2022-07-23T07:35:46;1.73;;;1.10;;
56171;SDS011;42052;41.634;-0.946;2022-07-23T07:38:12;5.25;;;1.20;;
56171;SDS011;42052;41.634;-0.946;2022-07-23T07:40:37;2.17;;;1.00;;
56171;SDS011;42052;41.634;-0.946;2022-07-23T07:43:03;3.35;;;1.02;;
56171;SDS011;42052;41.634;-0.946;2022-07-23T07:45:29;3.42;;;1.23;;
56171;SDS011;42052;41.634;-0.946;2022-07-23T07:47:55;5.10;;;1.50;;
56171;SDS011;42052;41.634;-0.946;2022-07-23T07:50:22;3.20;;;1.00;;
56171;SDS011;42052;41.634;-0.946;2022-07-23T07:52:48;7.07;;;1.33;;
56171;SDS011;42052;41.634;-0.946;2022-07-23T07:55:14;2.22;;;1.08;;
56171;SDS011;42052;41.634;-0.946;2022-07-23T07:57:40;2.42;;;1.10;;
56171;SDS011;42052;41.634;-0.946;2022-07-23T08:00:07;2.97;;;1.05;;
56171;SDS011;42052;41.634;-0.946;2022-07-23T08:02:44;3.17;;;1.10;;
56171;SDS011;42052;41.634;-0.946;2022-07-23T08:05:12;4.78;;;1.20;;
56171;SDS011;42052;41.634;-0.946;2022-07-23T08:07:39;3.58;;;1.10;;
56171;SDS011;42052;41.634;-0.946;2022-07-23T08:10:09;3.47;;;1.20;;
56171;SDS011;42052;41.634;-0.946;2022-07-23T08:12:48;3.55;;;1.10;;
56171;SDS011;42052;41.634;-0.946;2022-07-23T08:15:17;4.15;;;1.20;;
56171;SDS011;42052;41.634;-0.946;2022-07-23T08:17:44;4.78;;;1.10;;
56171;SDS011;42052;41.634;-0.946;2022-07-23T08:20:11;2.70;;;1.55;;
56171;SDS011;42052;41.634;-0.946;2022-07-23T08:22:42;2.80;;;1.20;;
56171;SDS011;42052;41.634;-0.946;2022-07-23T08:25:19;5.68;;;1.20;;
56171;SDS011;42052;41.634;-0.946;2022-07-23T08:27:56;4.60;;;1.30;;
56171;SDS011;42052;41.634;-0.946;2022-07-23T08:30:24;2.83;;;1.17;;
56171;SDS011;42052;41.634;-0.946;2022-07-23T08:32:57;2.30;;;1.00;;
56171;SDS011;42052;41.634;-0.946;2022-07-23T08:37:54;4.45;;;1.33;;
56171;SDS011;42052;41.634;-0.946;2022-07-23T08:40:20;1.85;;;1.08;;
56171;SDS011;42052;41.634;-0.946;2022-07-23T08:42:48;2.08;;;1.23;;
56171;SDS011;42052;41.634;-0.946;2022-07-23T08:45:16;2.15;;;1.20;;
56171;SDS011;42052;41.634;-0.946;2022-07-23T08:47:44;3.67;;;1.20;;
56171;SDS011;42052;41.634;-0.946;2022-07-23T08:50:10;3.30;;;1.15;;
56171;SDS011;42052;41.634;-0.946;2022-07-23T08:52:36;4.80;;;1.48;;
56171;SDS011;42052;41.634;-0.946;2022-07-23T08:55:03;4.28;;;1.23;;
56171;SDS011;42052;41.634;-0.946;2022-07-23T08:57:30;3.65;;;1.15;;
56171;SDS011;42052;41.634;-0.946;2022-07-23T08:59:56;3.47;;;1.13;;
56171;SDS011;42052;41.634;-0.946;2022-07-23T09:02:27;4.38;;;1.10;;
56171;SDS011;42052;41.634;-0.946;2022-07-23T09:04:53;3.97;;;1.48;;
56171;SDS011;42052;41.634;-0.946;2022-07-23T09:07:19;2.85;;;1.40;;
56171;SDS011;42052;41.634;-0.946;2022-07-23T09:09:45;3.45;;;1.08;;
56171;SDS011;42052;41.634;-0.946;2022-07-23T09:12:11;5.40;;;1.30;;
56171;SDS011;42052;41.634;-0.946;2022-07-23T09:17:21;1.65;;;1.10;;
56171;SDS011;42052;41.634;-0.946;2022-07-23T09:19:46;4.53;;;1.20;;
56171;SDS011;42052;41.634;-0.946;2022-07-23T09:22:23;6.20;;;1.30;;
56171;SDS011;42052;41.634;-0.946;2022-07-23T09:27:54;3.38;;;1.48;;
56171;SDS011;42052;41.634;-0.946;2022-07-23T09:30:23;4.07;;;1.38;;
56171;SDS011;42052;41.634;-0.946;2022-07-23T09:35:50;3.72;;;1.35;;
56171;SDS011;42052;41.634;-0.946;2022-07-23T09:38:18;4.38;;;1.27;;
56171;SDS011;42052;41.634;-0.946;2022-07-23T09:40:46;3.88;;;1.40;;
56171;SDS011;42052;41.634;-0.946;2022-07-23T09:43:30;3.30;;;1.30;;
56171;SDS011;42052;41.634;-0.946;2022-07-23T09:46:16;4.38;;;1.25;;
56171;SDS011;42052;41.634;-0.946;2022-07-23T09:48:46;2.85;;;1.30;;
56171;SDS011;42052;41.634;-0.946;2022-07-23T09:51:13;4.88;;;1.20;;
56171;SDS011;42052;41.634;-0.946;2022-07-23T09:53:59;6.88;;;1.20;;
56171;SDS011;42052;41.634;-0.946;2022-07-23T09:56:25;4.60;;;1.42;;
56171;SDS011;42052;41.634;-0.946;2022-07-23T09:58:53;5.75;;;1.58;;
56171;SDS011;42052;41.634;-0.946;2022-07-23T10:01:30;4.38;;;1.33;;
56171;SDS011;42052;41.634;-0.946;2022-07-23T10:03:57;4.60;;;1.27;;
56171;SDS011;42052;41.634;-0.946;2022-07-23T10:06:24;3.50;;;1.33;;
56171;SDS011;42052;41.634;-0.946;2022-07-23T10:08:51;3.50;;;1.23;;
56171;SDS011;42052;41.634;-0.946;2022-07-23T10:11:23;2.53;;;1.40;;
56171;SDS011;42052;41.634;-0.946;2022-07-23T10:13:49;3.13;;;1.23;;
56171;SDS011;42052;41.634;-0.946;2022-07-23T10:16:18;4.47;;;1.30;;
56171;SDS011;42052;41.634;-0.946;2022-07-23T10:18:45;2.28;;;1.10;;
56171;SDS011;42052;41.634;-0.946;2022-07-23T10:21:12;3.05;;;1.33;;
56171;SDS011;42052;41.634;-0.946;2022-07-23T10:23:48;3.17;;;1.20;;
56171;SDS011;42052;41.634;-0.946;2022-07-23T10:29:39;2.33;;;1.42;;
56171;SDS011;42052;41.634;-0.946;2022-07-23T10:32:28;1.90;;;1.30;;
56171;SDS011;42052;41.634;-0.946;2022-07-23T10:37:55;2.60;;;1.25;;
56171;SDS011;42052;41.634;-0.946;2022-07-23T10:40:26;2.95;;;1.00;;
56171;SDS011;42052;41.634;-0.946;2022-07-23T10:42:54;3.00;;;1.30;;
56171;SDS011;42052;41.634;-0.946;2022-07-23T10:48:18;2.67;;;1.15;;
56171;SDS011;42052;41.634;-0.946;2022-07-23T10:53:54;1.67;;;1.08;;
56171;SDS011;42052;41.634;-0.946;2022-07-23T10:59:21;3.17;;;1.08;;
56171;SDS011;42052;41.634;-0.946;2022-07-23T11:01:48;1.88;;;1.13;;
56171;SDS011;42052;41.634;-0.946;2022-07-23T11:04:14;4.30;;;1.42;;
56171;SDS011;42052;41.634;-0.946;2022-07-23T11:07:22;2.38;;;0.90;;
56171;SDS011;42052;41.634;-0.946;2022-07-23T11:09:30;2.53;;;1.08;;
56171;SDS011;42052;41.634;-0.946;2022-07-23T11:17:24;2.38;;;1.25;;
56171;SDS011;42052;41.634;-0.946;2022-07-23T11:22:39;1.10;;;0.98;;
56171;SDS011;42052;41.634;-0.946;2022-07-23T11:27:41;1.65;;;0.93;;
56171;SDS011;42052;41.634;-0.946;2022-07-23T11:30:08;1.55;;;1.00;;
56171;SDS011;42052;41.634;-0.946;2022-07-23T11:33:15;2.13;;;1.10;;
56171;SDS011;42052;41.634;-0.946;2022-07-23T11:35:45;1.52;;;1.00;;
56171;SDS011;42052;41.634;-0.946;2022-07-23T11:38:16;2.22;;;1.20;;
56171;SDS011;42052;41.634;-0.946;2022-07-23T11:40:50;1.67;;;1.20;;
56171;SDS011;42052;41.634;-0.946;2022-07-23T11:43:18;1.58;;;0.90;;
56171;SDS011;42052;41.634;-0.946;2022-07-23T11:45:45;1.30;;;0.90;;
56171;SDS011;42052;41.634;-0.946;2022-07-23T11:48:17;1.50;;;1.10;;
56171;SDS011;42052;41.634;-0.946;2022-07-23T11:50:45;1.40;;;1.10;;
56171;SDS011;42052;41.634;-0.946;2022-07-23T11:53:11;1.73;;;1.20;;
56171;SDS011;42052;41.634;-0.946;2022-07-23T11:55:37;1.38;;;1.08;;
56171;SDS011;42052;41.634;-0.946;2022-07-23T11:58:04;1.77;;;0.90;;
56171;SDS011;42052;41.634;-0.946;2022-07-23T12:00:31;1.40;;;0.90;;
56171;SDS011;42052;41.634;-0.946;2022-07-23T12:02:58;1.67;;;1.10;;
56171;SDS011;42052;41.634;-0.946;2022-07-23T12:05:33;1.85;;;1.00;;
56171;SDS011;42052;41.634;-0.946;2022-07-23T12:08:02;1.20;;;1.10;;
56171;SDS011;42052;41.634;-0.946;2022-07-23T12:10:33;1.00;;;0.80;;
56171;SDS011;42052;41.634;-0.946;2022-07-23T12:13:02;1.48;;;1.00;;
56171;SDS011;42052;41.634;-0.946;2022-07-23T12:15:38;2.53;;;1.15;;
56171;SDS011;42052;41.634;-0.946;2022-07-23T12:18:06;1.73;;;1.00;;
56171;SDS011;42052;41.634;-0.946;2022-07-23T12:20:41;1.20;;;1.00;;
56171;SDS011;42052;41.634;-0.946;2022-07-23T12:23:10;1.92;;;1.10;;
56171;SDS011;42052;41.634;-0.946;2022-07-23T12:25:38;1.33;;;1.00;;
56171;SDS011;42052;41.634;-0.946;2022-07-23T12:28:13;0.88;;;0.80;;
56171;SDS011;42052;41.634;-0.946;2022-07-23T12:30:47;1.25;;;1.02;;
56171;SDS011;42052;41.634;-0.946;2022-07-23T12:33:22;1.85;;;1.00;;
56171;SDS011;42052;41.634;-0.946;2022-07-23T12:35:52;1.27;;;0.90;;
56171;SDS011;42052;41.634;-0.946;2022-07-23T12:38:21;2.13;;;1.10;;
56171;SDS011;42052;41.634;-0.946;2022-07-23T12:41:06;1.02;;;0.88;;
56171;SDS011;42052;41.634;-0.946;2022-07-23T12:43:33;1.15;;;0.88;;
56171;SDS011;42052;41.634;-0.946;2022-07-23T12:46:06;1.90;;;0.98;;
56171;SDS011;42052;41.634;-0.946;2022-07-23T12:48:53;1.42;;;1.00;;
56171;SDS011;42052;41.634;-0.946;2022-07-23T12:51:26;1.50;;;0.90;;
56171;SDS011;42052;41.634;-0.946;2022-07-23T12:53:58;1.65;;;1.00;;
56171;SDS011;42052;41.634;-0.946;2022-07-23T12:56:33;1.45;;;1.00;;
56171;SDS011;42052;41.634;-0.946;2022-07-23T13:01:34;0.85;;;0.82;;
56171;SDS011;42052;41.634;-0.946;2022-07-23T13:04:20;0.93;;;0.90;;
56171;SDS011;42052;41.634;-0.946;2022-07-23T13:09:17;1.27;;;0.90;;
56171;SDS011;42052;41.634;-0.946;2022-07-23T13:11:45;1.45;;;1.00;;
56171;SDS011;42052;41.634;-0.946;2022-07-23T13:14:11;1.15;;;1.00;;
56171;SDS011;42052;41.634;-0.946;2022-07-23T13:16:38;1.17;;;1.00;;
56171;SDS011;42052;41.634;-0.946;2022-07-23T13:19:04;1.02;;;0.80;;
56171;SDS011;42052;41.634;-0.946;2022-07-23T13:21:31;1.13;;;0.80;;
56171;SDS011;42052;41.634;-0.946;2022-07-23T13:23:57;1.00;;;0.90;;
56171;SDS011;42052;41.634;-0.946;2022-07-23T13:26:24;1.40;;;0.88;;
56171;SDS011;42052;41.634;-0.946;2022-07-23T13:28:50;1.08;;;0.90;;
56171;SDS011;42052;41.634;-0.946;2022-07-23T13:31:17;1.58;;;1.20;;
56171;SDS011;42052;41.634;-0.946;2022-07-23T13:33:43;0.88;;;0.80;;
56171;SDS011;42052;41.634;-0.946;2022-07-23T13:36:08;0.90;;;0.85;;
56171;SDS011;42052;41.634;-0.946;2022-07-23T13:38:35;0.88;;;0.88;;
56171;SDS011;42052;41.634;-0.946;2022-07-23T13:41:02;1.40;;;1.08;;
56171;SDS011;42052;41.634;-0.946;2022-07-23T13:43:31;1.08;;;0.90;;
56171;SDS011;42052;41.634;-0.946;2022-07-23T13:45:57;1.00;;;0.90;;
56171;SDS011;42052;41.634;-0.946;2022-07-23T13:48:23;1.15;;;0.95;;
56171;SDS011;42052;41.634;-0.946;2022-07-23T13:50:49;1.92;;;0.85;;
56171;SDS011;42052;41.634;-0.946;2022-07-23T13:53:17;1.10;;;0.90;;
56171;SDS011;42052;41.634;-0.946;2022-07-23T13:55:46;1.05;;;0.80;;
56171;SDS011;42052;41.634;-0.946;2022-07-23T13:58:13;1.13;;;0.90;;
56171;SDS011;42052;41.634;-0.946;2022-07-23T14:00:40;1.33;;;0.90;;
56171;SDS011;42052;41.634;-0.946;2022-07-23T14:03:09;2.15;;;0.80;;
56171;SDS011;42052;41.634;-0.946;2022-07-23T14:05:35;0.80;;;0.80;;
56171;SDS011;42052;41.634;-0.946;2022-07-23T14:08:01;0.75;;;0.75;;
56171;SDS011;42052;41.634;-0.946;2022-07-23T14:10:28;1.20;;;0.80;;
56171;SDS011;42052;41.634;-0.946;2022-07-23T14:12:54;1.42;;;1.02;;
56171;SDS011;42052;41.634;-0.946;2022-07-23T14:15:23;0.93;;;0.90;;
56171;SDS011;42052;41.634;-0.946;2022-07-23T14:17:52;1.55;;;0.80;;
56171;SDS011;42052;41.634;-0.946;2022-07-23T14:20:18;0.93;;;0.80;;
56171;SDS011;42052;41.634;-0.946;2022-07-23T14:22:45;1.30;;;1.00;;
56171;SDS011;42052;41.634;-0.946;2022-07-23T14:25:11;1.23;;;0.82;;
56171;SDS011;42052;41.634;-0.946;2022-07-23T14:27:37;0.93;;;0.80;;
56171;SDS011;42052;41.634;-0.946;2022-07-23T14:30:04;2.15;;;0.80;;
56171;SDS011;42052;41.634;-0.946;2022-07-23T14:32:31;0.93;;;0.80;;
56171;SDS011;42052;41.634;-0.946;2022-07-23T14:34:57;0.95;;;0.85;;
56171;SDS011;42052;41.634;-0.946;2022-07-23T14:37:23;1.25;;;1.00;;
56171;SDS011;42052;41.634;-0.946;2022-07-23T14:39:50;1.77;;;0.80;;
56171;SDS011;42052;41.634;-0.946;2022-07-23T14:42:16;0.93;;;0.80;;
56171;SDS011;42052;41.634;-0.946;2022-07-23T14:44:43;0.88;;;0.80;;
56171;SDS011;42052;41.634;-0.946;2022-07-23T14:47:09;1.10;;;0.80;;
56171;SDS011;42052;41.634;-0.946;2022-07-23T14:49:35;1.48;;;0.90;;
56171;SDS011;42052;41.634;-0.946;2022-07-23T14:52:02;0.63;;;0.63;;
56171;SDS011;42052;41.634;-0.946;2022-07-23T14:54:29;0.80;;;0.73;;
56171;SDS011;42052;41.634;-0.946;2022-07-23T14:56:55;1.15;;;0.80;;
56171;SDS011;42052;41.634;-0.946;2022-07-23T14:59:22;1.27;;;0.90;;
56171;SDS011;42052;41.634;-0.946;2022-07-23T15:01:48;0.85;;;0.82;;
56171;SDS011;42052;41.634;-0.946;2022-07-23T15:04:14;0.80;;;0.80;;
56171;SDS011;42052;41.634;-0.946;2022-07-23T15:06:41;0.82;;;0.80;;
56171;SDS011;42052;41.634;-0.946;2022-07-23T15:09:07;0.85;;;0.85;;
56171;SDS011;42052;41.634;-0.946;2022-07-23T15:11:33;0.70;;;0.70;;
56171;SDS011;42052;41.634;-0.946;2022-07-23T15:14:02;1.00;;;0.90;;
56171;SDS011;42052;41.634;-0.946;2022-07-23T15:16:28;0.88;;;0.88;;
56171;SDS011;42052;41.634;-0.946;2022-07-23T15:18:54;1.60;;;0.90;;